Aeroporto :
LOGIN :

Iscrizione | Disclaimer

   EN    FR    IT 

 










Sommario :    VFR   VFR Marginale   IFR   IFR Intensivo   IFR Molto Intensivo
Visibilità : 
Base nubi : 
>= 8 km
>= 3000ft
5 / 8 km
1000 / 3000 ft
1500m / 5 km
500 / 1000 ft
800 / 1500m
200 / 500 ft
< 800m
< 200 ft
Simboli :   Temporali  Nebbia  Neve Forte  Precipitazioni Forti  Vento > 20 kt
SIGMETs :   Varie  Temporali  Ghiacco  Turbolenza  Onda orograficha  Ceneri Vulcaniche






- Altitudine del aeroporto : 1487 ft
- Codice IATA : MUC


EDDM - München Franz Josef Strauss

ULTIMO METAR :
  • 290750Z AUTO 03006KT 350V070 CAVOK 13/06 Q1011 NOSIG

METARs OBSOLETI :
  • 290720Z AUTO 08005KT 020V120 CAVOK 12/06 Q1011 NOSIG
  • 290650Z AUTO 10006KT 070V130 CAVOK 11/06 Q1011 NOSIG
  • 290620Z AUTO 06005KT 030V120 CAVOK 11/06 Q1011 NOSIG
  • 290550Z AUTO 05005KT 020V100 CAVOK 10/06 Q1011 NOSIG
  • 290520Z AUTO 09004KT 050V120 CAVOK 08/05 Q1011 NOSIG

TAF TAF EDDM
Valido dal 29 a 06 ore il 30 a 12 ore UTC


290500Z 2906/3012 04002KT CAVOK
TEMPO 2910/2920 33015KT SHRA SCT040CB
BECMG 2913/2915 33008KT
PROB40
TEMPO 2913/2916 33015G25KT 4000 TSRAGR SCT030CB
BECMG 2918/2920 23003KT
TEMPO 3001/3005 4000 MIFG
PROB30
TEMPO 3001/3005 0500 FG
BECMG 3006/3008 08005KT



MetMap, La meteo Aeronautica in un colpo d'occhio ! - Copyright ORBIFLY Dicembre 2007 - Disclaimer

ORBIFLY MET'MAP TEAM :

Programmazione e sviluppo : Alexandra Zaïnal
Concezione : Baudouin d'Aumeries
Supporto tecnico e logistico : Manuel Goepfert
Aiuto : Marc-Olivier Méhu
Aiuto per la traduzione : Arnaldo La Scala

Contatto : metmap@orbifly.com




FONTI E CREDITI :

   NOAA